Time;durP1;ratioP1;P1;durP2;ratioP2;P2;SDS_P1;SDS_P2;PMS_P1;PMS_P2;Temp;Humidity;BMP_temperature;BMP_pressure;BME280_temperature;BME280_humidity;BME280_pressure;Samples;Min_cycle;Max_cycle;Signal;HPM_P1;HPM_P2
2023/04/15 00:01:04;;;;;;;13.07;11.93;;;7.40;89.60;;;;;;4920259;29;20655;-91
2023/04/15 00:03:30;;;;;;;13.13;12.03;;;7.40;89.70;;;;;;4917689;29;20287;-91
2023/04/15 00:05:57;;;;;;;12.67;11.57;;;7.50;89.80;;;;;;4918463;29;20259;-91
2023/04/15 00:08:22;;;;;;;11.87;10.77;;;7.40;89.80;;;;;;4916384;29;20589;-91
2023/04/15 00:10:48;;;;;;;10.90;9.90;;;7.40;89.70;;;;;;4917911;29;20253;-90
2023/04/15 00:13:14;;;;;;;10.97;10.07;;;7.40;89.60;;;;;;4916223;29;20213;-90
2023/04/15 00:15:39;;;;;;;12.50;10.93;;;7.40;89.70;;;;;;4917670;29;20264;-90
2023/04/15 00:18:06;;;;;;;12.47;10.60;;;7.50;89.80;;;;;;4918388;29;20189;-90
2023/04/15 00:20:33;;;;;;;11.40;10.40;;;7.50;89.80;;;;;;4917556;29;20212;-91
2023/04/15 00:22:59;;;;;;;10.53;9.53;;;7.50;89.70;;;;;;4919008;29;20304;-91
2023/04/15 00:25:25;;;;;;;11.13;10.33;;;7.50;89.80;;;;;;4919882;29;20206;-91
2023/04/15 00:27:50;;;;;;;11.13;10.13;;;7.50;89.80;;;;;;4917542;29;20267;-91
2023/04/15 00:30:16;;;;;;;11.37;10.40;;;7.50;89.80;;;;;;4918026;29;20289;-91
2023/04/15 00:32:41;;;;;;;11.10;10.00;;;7.50;89.80;;;;;;4916956;29;20296;-90
2023/04/15 00:35:08;;;;;;;10.80;9.90;;;7.50;89.80;;;;;;4917177;29;20281;-89
2023/04/15 00:37:34;;;;;;;10.63;9.60;;;7.50;89.70;;;;;;4916894;29;20188;-89
2023/04/15 00:40:00;;;;;;;9.97;9.17;;;7.50;89.60;;;;;;4917294;29;20236;-89
2023/04/15 00:42:26;;;;;;;10.33;9.53;;;7.50;89.70;;;;;;4916961;29;20618;-89
2023/04/15 00:44:52;;;;;;;11.27;10.37;;;7.50;89.70;;;;;;4916510;29;20214;-89
2023/04/15 00:47:19;;;;;;;10.70;9.80;;;7.50;89.60;;;;;;4916580;29;20192;-89
2023/04/15 00:49:44;;;;;;;10.40;9.70;;;7.60;89.60;;;;;;4917820;29;20181;-90
2023/04/15 00:52:10;;;;;;;10.77;9.97;;;7.50;89.60;;;;;;4918995;29;20203;-92
2023/04/15 00:54:36;;;;;;;10.80;9.90;;;7.60;89.60;;;;;;4920019;29;20267;-90
2023/04/15 00:57:05;;;;;;;11.40;10.50;;;7.70;89.60;;;;;;4919526;29;20263;-90
2023/04/15 00:59:32;;;;;;;11.93;10.23;;;7.70;89.50;;;;;;4921273;29;20180;-90
2023/04/15 01:01:57;;;;;;;11.70;10.57;;;7.60;89.50;;;;;;4920197;29;20181;-91
2023/04/15 01:04:23;;;;;;;12.00;11.03;;;7.60;89.60;;;;;;4918787;29;20312;-91
2023/04/15 01:06:49;;;;;;;12.63;11.63;;;7.70;89.60;;;;;;4917833;29;20711;-92
2023/04/15 01:09:15;;;;;;;12.50;11.30;;;7.70;89.70;;;;;;4919350;29;20185;-91
2023/04/15 01:11:41;;;;;;;13.07;11.90;;;7.70;89.80;;;;;;4923956;29;20173;-90
2023/04/15 01:14:08;;;;;;;12.80;11.67;;;7.70;89.90;;;;;;4918593;29;20687;-91
2023/04/15 01:16:35;;;;;;;13.03;11.83;;;7.70;89.90;;;;;;4917196;29;20234;-91
2023/04/15 01:19:01;;;;;;;13.40;12.20;;;7.70;89.90;;;;;;4915746;29;20188;-91
2023/04/15 01:21:26;;;;;;;13.77;12.50;;;7.60;89.90;;;;;;4916944;29;20248;-90
2023/04/15 01:23:54;;;;;;;15.07;13.57;;;7.70;90.00;;;;;;4916527;29;20620;-90
2023/04/15 01:26:21;;;;;;;14.03;12.83;;;7.80;90.10;;;;;;4916941;29;20181;-90
2023/04/15 01:28:46;;;;;;;15.20;13.90;;;7.70;90.10;;;;;;4916786;29;20747;-90
2023/04/15 01:31:13;;;;;;;14.43;13.23;;;7.70;90.20;;;;;;4916719;29;20183;-90
2023/04/15 01:33:41;;;;;;;15.87;13.90;;;7.70;90.30;;;;;;4916774;29;20224;-90
2023/04/15 01:36:08;;;;;;;15.60;14.20;;;7.70;90.40;;;;;;4916689;29;20191;-90
2023/04/15 01:38:35;;;;;;;15.87;14.20;;;7.80;90.50;;;;;;4916685;29;20530;-91
2023/04/15 01:41:00;;;;;;;15.77;14.37;;;7.70;90.50;;;;;;4916748;29;20643;-90
2023/04/15 01:43:27;;;;;;;16.70;15.27;;;7.70;90.60;;;;;;4915323;29;20209;-90
2023/04/15 01:45:52;;;;;;;16.83;15.33;;;7.70;90.80;;;;;;4917089;29;20173;-90
2023/04/15 01:48:18;;;;;;;18.03;16.53;;;7.70;90.80;;;;;;4917062;29;20312;-90
2023/04/15 01:50:44;;;;;;;17.00;15.43;;;7.70;91.00;;;;;;4920393;29;20177;-90
2023/04/15 01:53:10;;;;;;;17.77;16.20;;;7.70;91.10;;;;;;4919908;29;20200;-91
2023/04/15 01:55:35;;;;;;;17.70;15.87;;;7.70;91.10;;;;;;4918984;29;20192;-90
2023/04/15 01:58:01;;;;;;;18.63;16.53;;;7.70;91.20;;;;;;4920333;29;20181;-90
2023/04/15 02:00:27;;;;;;;18.70;16.83;;;7.70;91.20;;;;;;4920081;29;20192;-90
2023/04/15 02:02:52;;;;;;;18.80;16.97;;;7.70;91.30;;;;;;4920061;29;20204;-91
2023/04/15 02:05:18;;;;;;;17.83;16.23;;;7.70;91.40;;;;;;4919839;29;20283;-91
2023/04/15 02:07:44;;;;;;;18.73;16.87;;;7.70;91.50;;;;;;4918961;29;20184;-90
2023/04/15 02:10:12;;;;;;;18.07;16.47;;;7.70;91.60;;;;;;4918902;29;20185;-91
2023/04/15 02:12:38;;;;;;;18.47;16.87;;;7.70;91.60;;;;;;4919837;29;20197;-91
2023/04/15 02:15:04;;;;;;;19.67;17.80;;;7.70;91.80;;;;;;4919948;29;20185;-91
2023/04/15 02:17:33;;;;;;;19.63;17.83;;;7.60;91.80;;;;;;4920024;29;20212;-91
2023/04/15 02:19:59;;;;;;;18.17;16.50;;;7.60;91.90;;;;;;4918301;29;20191;-91
2023/04/15 02:22:25;;;;;;;19.23;17.20;;;7.60;91.90;;;;;;4919468;29;20342;-91
2023/04/15 02:24:51;;;;;;;18.70;17.03;;;7.60;92.00;;;;;;4919639;29;20197;-91
2023/04/15 02:27:17;;;;;;;20.43;18.33;;;7.60;92.00;;;;;;4920439;29;20580;-91
2023/04/15 02:29:44;;;;;;;19.57;17.77;;;7.70;92.10;;;;;;4919693;29;20228;-91
2023/04/15 02:32:10;;;;;;;19.63;17.67;;;7.60;92.10;;;;;;4920847;29;20193;-91
2023/04/15 02:34:40;;;;;;;18.80;17.20;;;7.60;92.20;;;;;;4920848;29;20181;-91
2023/04/15 02:37:06;;;;;;;21.83;18.07;;;7.60;92.30;;;;;;4921850;29;20181;-91
2023/04/15 02:39:32;;;;;;;19.37;17.60;;;7.70;92.30;;;;;;4920707;29;20185;-91
2023/04/15 02:41:58;;;;;;;20.37;18.63;;;7.70;92.30;;;;;;4922831;29;20208;-91
2023/04/15 02:44:24;;;;;;;18.93;17.43;;;7.70;92.40;;;;;;4922416;29;20698;-91
2023/04/15 02:46:51;;;;;;;19.90;18.10;;;7.70;92.40;;;;;;4921987;29;20181;-91
2023/04/15 02:49:17;;;;;;;19.83;17.73;;;7.70;92.40;;;;;;4921447;29;20634;-91
2023/04/15 02:51:48;;;;;;;20.53;18.73;;;7.70;92.50;;;;;;4921966;29;20245;-91
2023/04/15 02:54:17;;;;;;;20.87;19.07;;;7.70;92.50;;;;;;4920740;29;20212;-91
2023/04/15 02:56:42;;;;;;;21.50;19.80;;;7.60;92.50;;;;;;4921549;29;20184;-91
2023/04/15 02:59:08;;;;;;;21.07;19.27;;;7.60;92.60;;;;;;4922799;29;20260;-91
2023/04/15 03:01:33;;;;;;;21.87;20.00;;;7.60;92.60;;;;;;4921779;29;20567;-90
2023/04/15 03:03:59;;;;;;;22.47;20.47;;;7.70;92.70;;;;;;4918551;29;20215;-90
2023/04/15 03:06:25;;;;;;;21.43;19.63;;;7.70;92.70;;;;;;4920405;29;20201;-91
2023/04/15 03:08:50;;;;;;;21.77;19.90;;;7.60;92.70;;;;;;4919649;29;20173;-91
2023/04/15 03:11:17;;;;;;;22.10;20.20;;;7.70;92.80;;;;;;4919851;29;20180;-90
2023/04/15 03:13:43;;;;;;;22.07;20.27;;;7.70;92.80;;;;;;4918838;29;20287;-90
2023/04/15 03:16:08;;;;;;;22.23;20.30;;;7.70;92.90;;;;;;4917869;29;20667;-91
2023/04/15 03:18:34;;;;;;;21.73;19.93;;;7.70;92.90;;;;;;4917886;29;20181;-91
2023/04/15 03:21:00;;;;;;;21.27;19.47;;;7.70;93.00;;;;;;4917649;29;20180;-90
2023/04/15 03:23:25;;;;;;;20.97;19.23;;;7.70;93.00;;;;;;4918059;29;20307;-90
2023/04/15 03:25:53;;;;;;;21.93;20.07;;;7.70;93.00;;;;;;4917646;29;20187;-90
2023/04/15 03:28:19;;;;;;;21.67;19.73;;;7.70;93.00;;;;;;4919312;29;20176;-90
2023/04/15 03:30:44;;;;;;;23.23;21.23;;;7.70;93.10;;;;;;4918962;29;20180;-90
2023/04/15 03:33:10;;;;;;;22.93;20.93;;;7.70;93.10;;;;;;4918607;29;20207;-89
2023/04/15 03:35:35;;;;;;;22.50;20.60;;;7.70;93.10;;;;;;4918156;29;20236;-89
2023/04/15 03:38:01;;;;;;;22.67;20.47;;;7.70;93.10;;;;;;4918379;29;20208;-89
2023/04/15 03:40:26;;;;;;;23.60;21.67;;;7.70;93.10;;;;;;4918760;29;20181;-91
2023/04/15 03:42:54;;;;;;;22.87;20.90;;;7.70;93.20;;;;;;4922004;29;20551;-91
2023/04/15 03:45:20;;;;;;;23.50;21.33;;;7.70;93.10;;;;;;4919246;29;20216;-91
2023/04/15 03:47:45;;;;;;;24.53;22.23;;;7.70;93.20;;;;;;4927176;29;20594;-90
2023/04/15 03:50:11;;;;;;;24.57;22.27;;;7.70;93.30;;;;;;4921838;29;20240;-91
2023/04/15 03:52:37;;;;;;;24.03;21.80;;;7.70;93.30;;;;;;4918197;29;20271;-93
2023/04/15 03:55:02;;;;;;;25.57;23.33;;;7.60;93.30;;;;;;4919058;29;20264;-93
2023/04/15 03:57:28;;;;;;;26.03;23.83;;;7.60;93.30;;;;;;4921915;29;20719;-93
2023/04/15 03:59:54;;;;;;;26.87;24.30;;;7.70;93.40;;;;;;4922962;29;20619;-92
2023/04/15 04:02:19;;;;;;;27.67;25.27;;;7.70;93.40;;;;;;4925569;29;20706;-93
2023/04/15 04:04:45;;;;;;;28.37;25.90;;;7.70;93.50;;;;;;4924883;29;20204;-93
2023/04/15 04:07:15;;;;;;;29.23;26.47;;;7.70;93.60;;;;;;4921764;29;20252;-93
2023/04/15 04:09:41;;;;;;;29.33;26.70;;;7.70;93.60;;;;;;4922920;29;20188;-92
2023/04/15 04:12:07;;;;;;;29.20;26.80;;;7.70;93.70;;;;;;4921902;29;20204;-92
2023/04/15 04:14:33;;;;;;;29.27;26.70;;;7.70;93.80;;;;;;4924352;29;20180;-93
2023/04/15 04:16:58;;;;;;;30.83;28.27;;;7.70;93.80;;;;;;4921472;29;20189;-92
2023/04/15 04:19:24;;;;;;;32.00;29.10;;;7.60;93.80;;;;;;4920434;29;20180;-93
2023/04/15 04:21:50;;;;;;;30.20;27.60;;;7.60;93.80;;;;;;4922487;29;20652;-92
2023/04/15 04:24:16;;;;;;;33.93;31.07;;;7.60;93.90;;;;;;4921964;29;20264;-93
2023/04/15 04:26:42;;;;;;;35.63;32.40;;;7.70;93.90;;;;;;4923990;29;20180;-92
2023/04/15 04:29:07;;;;;;;34.43;31.60;;;7.70;94.00;;;;;;4925153;29;20240;-93
2023/04/15 04:31:33;;;;;;;35.80;32.60;;;7.70;94.00;;;;;;4923212;29;20236;-93
2023/04/15 04:33:58;;;;;;;37.33;34.03;;;7.60;94.00;;;;;;4920157;29;20264;-93
2023/04/15 04:36:25;;;;;;;36.63;33.30;;;7.70;94.10;;;;;;4924657;29;20176;-92
2023/04/15 04:38:50;;;;;;;37.50;34.13;;;7.80;94.10;;;;;;4926027;29;20185;-93
2023/04/15 04:41:17;;;;;;;39.47;35.80;;;7.80;94.10;;;;;;4925527;29;20215;-92
2023/04/15 04:43:42;;;;;;;40.30;36.43;;;7.80;94.10;;;;;;4930189;29;20208;-93
2023/04/15 04:46:08;;;;;;;40.97;37.37;;;7.70;94.10;;;;;;4930885;29;20161;-93
2023/04/15 04:48:34;;;;;;;41.50;37.70;;;7.80;94.20;;;;;;4931743;29;20648;-92
2023/04/15 04:51:00;;;;;;;44.47;40.57;;;7.70;94.20;;;;;;4930671;29;20192;-92
2023/04/15 04:53:26;;;;;;;43.80;39.63;;;7.80;94.20;;;;;;4930495;29;20196;-93
2023/04/15 04:55:52;;;;;;;43.63;39.63;;;7.70;94.20;;;;;;4926402;29;20275;-93
2023/04/15 04:58:21;;;;;;;44.63;40.83;;;7.70;94.30;;;;;;4925985;29;20223;-93
2023/04/15 05:00:46;;;;;;;46.90;42.67;;;7.70;94.30;;;;;;4923934;29;20240;-93
2023/04/15 05:03:12;;;;;;;45.07;40.87;;;7.70;94.30;;;;;;4923593;29;20205;-93
2023/04/15 05:05:39;;;;;;;51.90;40.60;;;7.70;94.30;;;;;;4922831;29;20213;-94
2023/04/15 05:08:06;;;;;;;45.63;41.57;;;7.70;94.30;;;;;;4920939;29;20176;-94
2023/04/15 05:10:32;;;;;;;46.23;42.10;;;7.80;94.40;;;;;;4922998;29;20177;-93
2023/04/15 05:12:58;;;;;;;49.30;44.80;;;7.80;94.40;;;;;;4926899;29;20211;-93
2023/04/15 05:15:24;;;;;;;49.57;45.13;;;7.80;94.40;;;;;;4925527;29;20191;-93
2023/04/15 05:17:50;;;;;;;50.67;46.10;;;7.80;94.40;;;;;;4924526;29;20189;-92
2023/04/15 05:20:16;;;;;;;49.13;44.73;;;7.80;94.40;;;;;;4926217;29;20181;-93
2023/04/15 05:22:41;;;;;;;50.53;45.80;;;7.90;94.50;;;;;;4927099;29;20298;-93
2023/04/15 05:25:07;;;;;;;53.40;48.60;;;7.90;94.50;;;;;;4929009;29;20666;-92
2023/04/15 05:27:33;;;;;;;56.70;51.10;;;7.90;94.50;;;;;;4929473;29;20248;-92
2023/04/15 05:29:58;;;;;;;55.27;50.30;;;7.90;94.50;;;;;;4927580;29;20215;-93
2023/04/15 05:32:24;;;;;;;59.30;53.33;;;7.90;94.50;;;;;;4926608;29;20196;-93
2023/04/15 05:34:50;;;;;;;60.63;55.00;;;8.00;94.50;;;;;;4925499;29;20189;-92
2023/04/15 05:37:15;;;;;;;62.03;56.33;;;8.00;94.60;;;;;;4927976;29;20196;-93
2023/04/15 05:39:42;;;;;;;64.47;58.47;;;7.90;94.50;;;;;;4924205;29;20234;-93
2023/04/15 05:42:08;;;;;;;63.83;57.80;;;7.90;94.60;;;;;;4928727;29;20224;-93
2023/04/15 05:44:33;;;;;;;64.23;57.93;;;8.00;94.70;;;;;;4926845;29;20714;-92
2023/04/15 05:46:59;;;;;;;66.27;59.47;;;8.00;94.70;;;;;;4927946;29;20177;-92
2023/04/15 05:49:25;;;;;;;67.63;60.90;;;8.00;94.70;;;;;;4926335;29;20192;-93
2023/04/15 05:51:50;;;;;;;66.83;60.60;;;8.00;94.70;;;;;;4926419;29;20191;-93
2023/04/15 05:54:17;;;;;;;70.73;63.57;;;8.00;94.70;;;;;;4926209;29;20187;-93
2023/04/15 05:56:43;;;;;;;68.17;61.27;;;8.00;94.70;;;;;;4928162;29;20185;-93
2023/04/15 05:59:09;;;;;;;74.47;66.83;;;8.00;94.70;;;;;;4927541;29;20185;-92
2023/04/15 06:01:34;;;;;;;70.87;63.87;;;8.10;94.80;;;;;;4928725;29;20240;-94
2023/04/15 06:04:00;;;;;;;72.87;65.80;;;8.10;94.80;;;;;;4926327;29;20205;-93
2023/04/15 06:06:26;;;;;;;77.20;69.43;;;8.10;94.80;;;;;;4929079;29;20172;-93
2023/04/15 06:08:52;;;;;;;77.03;69.33;;;8.20;94.80;;;;;;4928698;29;20195;-93
2023/04/15 06:11:20;;;;;;;79.07;71.10;;;8.20;94.90;;;;;;4925643;29;20172;-93
2023/04/15 06:13:46;;;;;;;77.93;70.27;;;8.20;94.90;;;;;;4927258;29;20216;-93
2023/04/15 06:16:12;;;;;;;79.43;71.60;;;8.20;94.90;;;;;;4931067;29;20180;-92
2023/04/15 06:18:38;;;;;;;70.97;64.03;;;8.20;94.90;;;;;;4923278;29;20180;-93
2023/04/15 06:21:03;;;;;;;80.97;72.67;;;8.20;95.00;;;;;;4923056;29;20176;-93
2023/04/15 06:23:29;;;;;;;81.57;73.30;;;8.30;95.00;;;;;;4921066;29;20376;-93
2023/04/15 06:25:55;;;;;;;79.43;71.90;;;8.30;95.00;;;;;;4921886;29;20181;-93
2023/04/15 06:28:21;;;;;;;81.10;73.20;;;8.30;95.00;;;;;;4923273;29;20639;-93
2023/04/15 06:30:47;;;;;;;78.27;70.50;;;8.30;95.00;;;;;;4923376;29;20243;-93
2023/04/15 06:33:12;;;;;;;82.47;74.43;;;8.30;95.00;;;;;;4922824;29;20268;-93
2023/04/15 06:35:38;;;;;;;81.67;74.23;;;8.30;95.00;;;;;;4920747;29;20234;-92
2023/04/15 06:38:04;;;;;;;83.80;76.07;;;8.30;95.10;;;;;;4921650;29;20600;-93
2023/04/15 06:40:30;;;;;;;85.33;76.63;;;8.30;95.00;;;;;;4920428;29;20181;-93
2023/04/15 06:42:59;;;;;;;83.83;75.60;;;8.30;95.00;;;;;;4924351;29;20207;-93
2023/04/15 06:45:25;;;;;;;83.33;75.50;;;8.30;95.10;;;;;;4922175;29;20208;-93
2023/04/15 06:47:51;;;;;;;86.10;78.20;;;8.30;95.00;;;;;;4921986;29;20277;-92
2023/04/15 06:50:17;;;;;;;89.37;80.47;;;8.30;95.10;;;;;;4925789;29;20660;-92
2023/04/15 06:52:42;;;;;;;85.43;77.27;;;8.30;95.00;;;;;;4926378;29;20212;-92
2023/04/15 06:55:09;;;;;;;89.63;81.13;;;8.40;95.10;;;;;;4925658;29;20177;-92
2023/04/15 06:57:34;;;;;;;88.87;80.80;;;8.40;95.10;;;;;;4928454;29;20180;-93
2023/04/15 07:00:00;;;;;;;87.47;79.27;;;8.40;95.10;;;;;;4926858;29;20181;-93
2023/04/15 07:02:26;;;;;;;88.80;80.70;;;8.40;95.10;;;;;;4926463;29;20580;-93
2023/04/15 07:04:55;;;;;;;88.63;80.40;;;8.50;95.10;;;;;;4923226;29;20265;-94
2023/04/15 07:07:21;;;;;;;87.70;79.63;;;8.50;95.10;;;;;;4921197;29;20240;-93
2023/04/15 07:09:52;;;;;;;85.60;77.83;;;8.50;95.10;;;;;;4922906;29;20185;-94
2023/04/15 07:12:18;;;;;;;86.70;78.47;;;8.50;95.10;;;;;;4925871;29;20228;-94
2023/04/15 07:14:44;;;;;;;88.47;80.27;;;8.50;95.10;;;;;;4925116;29;20296;-94
2023/04/15 07:17:11;;;;;;;88.80;80.53;;;8.50;95.10;;;;;;4924799;29;20184;-94
2023/04/15 07:19:36;;;;;;;85.00;76.70;;;8.50;95.10;;;;;;4927469;29;20180;-94
2023/04/15 07:22:05;;;;;;;89.53;81.30;;;8.50;95.20;;;;;;4927821;29;20207;-94
2023/04/15 07:24:31;;;;;;;92.00;82.97;;;8.50;95.10;;;;;;4925715;29;20765;-94
2023/04/15 07:26:57;;;;;;;92.23;83.53;;;8.50;95.20;;;;;;4924120;29;20177;-94
2023/04/15 07:29:23;;;;;;;94.93;85.87;;;8.60;95.20;;;;;;4924314;29;20200;-93
2023/04/15 07:31:49;;;;;;;92.53;84.13;;;8.50;95.10;;;;;;4923060;29;20188;-95
2023/04/15 07:34:15;;;;;;;93.10;84.50;;;8.60;95.20;;;;;;4924263;29;20181;-94
2023/04/15 07:36:41;;;;;;;96.07;87.03;;;8.60;95.20;;;;;;4921513;29;20200;-94
2023/04/15 07:39:07;;;;;;;93.90;85.43;;;8.50;95.20;;;;;;4923140;29;20203;-94
2023/04/15 07:41:33;;;;;;;96.20;87.27;;;8.60;95.20;;;;;;4923623;29;20754;-94
2023/04/15 07:43:58;;;;;;;94.70;85.63;;;8.60;95.20;;;;;;4921192;29;20218;-94
2023/04/15 07:46:26;;;;;;;95.07;85.90;;;8.60;95.20;;;;;;4920229;29;20185;-94
2023/04/15 07:48:52;;;;;;;95.10;85.87;;;8.60;95.20;;;;;;4922697;29;20177;-94
2023/04/15 07:51:19;;;;;;;97.90;88.20;;;8.60;95.20;;;;;;4922255;29;20181;-94
2023/04/15 07:53:46;;;;;;;104.30;93.77;;;8.70;95.20;;;;;;4921945;29;20208;-94
2023/04/15 07:56:11;;;;;;;100.40;90.57;;;8.70;95.20;;;;;;4920771;29;20277;-94
2023/04/15 07:58:37;;;;;;;100.77;91.40;;;8.70;95.30;;;;;;4920890;29;20239;-94
2023/04/15 08:01:04;;;;;;;102.30;91.77;;;8.70;95.30;;;;;;4921573;29;20177;-94
2023/04/15 08:03:30;;;;;;;102.17;92.13;;;8.70;95.30;;;;;;4921543;29;20204;-94
2023/04/15 08:05:56;;;;;;;105.93;95.10;;;8.70;95.30;;;;;;4921882;29;20212;-94
2023/04/15 08:08:22;;;;;;;108.27;97.20;;;8.80;95.30;;;;;;4921600;29;20678;-95
2023/04/15 08:10:47;;;;;;;109.83;98.77;;;8.70;95.30;;;;;;4922684;29;20180;-94
2023/04/15 08:13:13;;;;;;;103.40;92.70;;;8.80;95.30;;;;;;4924535;29;20601;-93
2023/04/15 08:15:39;;;;;;;107.10;96.33;;;8.70;95.20;;;;;;4922855;29;20259;-94
2023/04/15 08:18:04;;;;;;;104.47;94.07;;;8.70;95.30;;;;;;4922227;29;20188;-93
2023/04/15 08:20:30;;;;;;;104.83;94.00;;;8.70;95.20;;;;;;4919997;29;20210;-93
2023/04/15 08:22:55;;;;;;;108.27;96.67;;;8.70;95.20;;;;;;4919519;29;20220;-93
2023/04/15 08:25:21;;;;;;;107.63;95.97;;;8.80;95.20;;;;;;4922797;29;20276;-94
2023/04/15 08:27:47;;;;;;;109.90;99.03;;;8.80;95.20;;;;;;4923175;29;20187;-93
2023/04/15 08:30:14;;;;;;;105.23;94.30;;;8.80;95.20;;;;;;4923372;29;20177;-93
2023/04/15 08:32:45;;;;;;;102.83;90.60;;;8.80;95.10;;;;;;4921203;29;20204;-94
2023/04/15 08:35:12;;;;;;;106.73;95.90;;;8.80;95.10;;;;;;4919479;29;20205;-93
2023/04/15 08:37:37;;;;;;;109.47;98.10;;;8.80;95.10;;;;;;4920570;29;20188;-94
2023/04/15 08:40:03;;;;;;;104.27;93.07;;;8.80;95.10;;;;;;4922624;29;20184;-94
2023/04/15 08:42:40;;;;;;;102.83;92.33;;;8.80;95.00;;;;;;4919905;29;20683;-93
2023/04/15 08:45:09;;;;;;;113.27;101.40;;;8.80;95.00;;;;;;4918547;29;20205;-94
2023/04/15 08:47:38;;;;;;;116.30;103.97;;;8.90;95.00;;;;;;4921059;29;20208;-93
2023/04/15 08:50:07;;;;;;;111.80;99.87;;;9.00;95.00;;;;;;4922400;29;20176;-93
2023/04/15 08:52:33;;;;;;;112.07;100.40;;;9.00;94.90;;;;;;4920151;29;20577;-93
2023/04/15 08:55:01;;;;;;;108.23;97.10;;;9.00;94.90;;;;;;4923339;29;20275;-93
2023/04/15 08:57:34;;;;;;;115.60;103.83;;;9.00;94.80;;;;;;4921089;29;20276;-93
2023/04/15 09:00:05;;;;;;;113.93;102.10;;;9.00;94.80;;;;;;4925885;29;20205;-93
2023/04/15 09:02:30;;;;;;;110.70;99.40;;;8.90;94.80;;;;;;4926192;29;20204;-94
2023/04/15 09:04:56;;;;;;;107.00;95.83;;;8.90;94.80;;;;;;4924697;29;20698;-93
2023/04/15 09:07:22;;;;;;;115.87;103.90;;;8.90;94.70;;;;;;4925450;29;20177;-93
2023/04/15 09:09:49;;;;;;;112.73;101.27;;;8.90;94.70;;;;;;4925895;29;20180;-93
2023/04/15 09:12:16;;;;;;;112.87;100.57;;;8.90;94.60;;;;;;4925586;29;20200;-93
2023/04/15 09:14:42;;;;;;;111.50;99.33;;;8.90;94.60;;;;;;4926007;29;20232;-93
2023/04/15 09:17:10;;;;;;;110.37;98.67;;;8.90;94.60;;;;;;4924150;29;20181;-94
2023/04/15 09:19:36;;;;;;;114.03;101.57;;;9.00;94.50;;;;;;4923623;29;20757;-93
2023/04/15 09:22:02;;;;;;;109.00;97.37;;;9.00;94.50;;;;;;4924213;29;20204;-94
2023/04/15 09:24:39;;;;;;;107.27;95.80;;;9.00;94.60;;;;;;4925021;29;20224;-94
2023/04/15 09:27:05;;;;;;;111.07;99.83;;;9.10;94.50;;;;;;4925230;29;20180;-93
2023/04/15 09:29:31;;;;;;;107.43;96.63;;;9.20;94.50;;;;;;4924473;29;20185;-93
2023/04/15 09:32:08;;;;;;;105.13;94.63;;;9.20;94.50;;;;;;4924500;29;20184;-93
2023/04/15 09:34:37;;;;;;;108.43;97.17;;;9.30;94.50;;;;;;4924446;29;20173;-93
2023/04/15 09:37:03;;;;;;;104.80;94.47;;;9.30;94.40;;;;;;4924904;29;20237;-93
2023/04/15 09:39:46;;;;;;;105.13;94.20;;;9.40;94.40;;;;;;4922741;29;20189;-93
2023/04/15 09:42:11;;;;;;;103.13;92.27;;;9.40;94.30;;;;;;4923900;29;20679;-92
2023/04/15 09:44:37;;;;;;;102.47;91.63;;;9.40;94.20;;;;;;4930584;29;20212;-93
2023/04/15 09:47:02;;;;;;;98.93;88.80;;;9.30;94.10;;;;;;4936297;29;20209;-94
2023/04/15 09:49:31;;;;;;;98.30;88.10;;;9.50;94.20;;;;;;4931057;29;20181;-94
2023/04/15 09:51:59;;;;;;;99.83;88.83;;;9.50;94.10;;;;;;4924184;29;20234;-94
2023/04/15 09:54:38;;;;;;;101.97;91.87;;;9.60;94.00;;;;;;4925351;29;20197;-93
2023/04/15 09:57:05;;;;;;;94.07;84.70;;;9.70;94.00;;;;;;4922787;29;20202;-94
2023/04/15 09:59:31;;;;;;;93.30;83.23;;;9.70;94.00;;;;;;4925250;29;20176;-94
2023/04/15 10:01:57;;;;;;;95.53;85.40;;;9.70;93.80;;;;;;4923109;29;20185;-93
2023/04/15 10:04:23;;;;;;;93.67;83.87;;;9.70;93.70;;;;;;4921342;29;20205;-93
2023/04/15 10:06:50;;;;;;;93.37;83.53;;;9.80;93.70;;;;;;4924101;29;20177;-93
2023/04/15 10:09:29;;;;;;;93.57;84.20;;;9.80;93.60;;;;;;4928249;29;20181;-94
2023/04/15 10:11:58;;;;;;;95.20;84.87;;;9.80;93.60;;;;;;4927169;29;20176;-94
2023/04/15 10:14:25;;;;;;;91.90;82.57;;;9.90;93.60;;;;;;4927670;29;20219;-94
2023/04/15 10:16:55;;;;;;;93.73;84.23;;;10.00;93.50;;;;;;4926165;29;20180;-93
2023/04/15 10:19:32;;;;;;;92.50;83.03;;;10.00;93.40;;;;;;4933026;29;20184;-94
2023/04/15 10:22:01;;;;;;;84.13;75.50;;;10.20;93.30;;;;;;4931219;29;20181;-94
2023/04/15 10:24:27;;;;;;;86.80;77.67;;;10.10;93.10;;;;;;4927988;29;20212;-94
2023/04/15 10:27:41;;;;;;;87.27;77.97;;;10.10;93.10;;;;;;4935853;29;20667;-93
2023/04/15 10:30:02;;;;;;;83.07;74.57;;;10.20;93.00;;;;;;4934908;29;20258;-94
2023/04/15 10:32:29;;;;;;;79.83;71.60;;;10.30;92.80;;;;;;4923500;29;20235;-94
2023/04/15 10:34:58;;;;;;;78.10;70.03;;;10.30;92.70;;;;;;4927781;29;20183;-94
2023/04/15 10:37:38;;;;;;;77.03;68.60;;;10.50;92.70;;;;;;4925443;29;20177;-93
2023/04/15 10:40:37;;;;;;;74.47;66.70;;;10.50;92.50;;;;;;4929213;29;20196;-94
2023/04/15 10:43:06;;;;;;;78.70;70.47;;;10.60;92.30;;;;;;4928761;29;20193;-93
2023/04/15 10:45:38;;;;;;;78.20;70.20;;;10.70;92.20;;;;;;4925564;29;20228;-93
2023/04/15 10:48:15;;;;;;;73.33;65.67;;;10.80;92.20;;;;;;4925967;29;20173;-94
2023/04/15 10:50:55;;;;;;;73.03;65.33;;;10.90;92.10;;;;;;4927620;29;20204;-95
2023/04/15 10:53:36;;;;;;;63.33;56.57;;;10.80;91.70;;;;;;4933668;29;20200;-94
2023/04/15 10:56:09;;;;;;;67.70;60.40;;;10.80;91.10;;;;;;4926626;29;20193;-93
2023/04/15 10:58:44;;;;;;;64.13;57.60;;;11.00;91.20;;;;;;4926327;29;20208;-94
2023/04/15 11:01:12;;;;;;;68.43;61.33;;;11.10;91.10;;;;;;4924248;29;20186;-93
2023/04/15 11:03:39;;;;;;;70.63;63.53;;;11.30;91.10;;;;;;4920244;29;20219;-93
2023/04/15 11:06:08;;;;;;;68.00;60.67;;;11.40;91.10;;;;;;4921778;29;20239;-93
2023/04/15 11:08:54;;;;;;;66.83;60.07;;;11.40;90.90;;;;;;4927428;29;20330;-93
2023/04/15 11:11:20;;;;;;;64.23;57.90;;;11.50;90.80;;;;;;4919928;29;20267;-94
2023/04/15 11:13:50;;;;;;;58.50;52.50;;;11.60;90.70;;;;;;4921858;29;20251;-93
2023/04/15 11:16:16;;;;;;;58.00;51.90;;;11.50;90.30;;;;;;4919336;29;20204;-94
2023/04/15 11:18:53;;;;;;;60.60;54.10;;;11.50;90.20;;;;;;4936957;29;20187;-94
2023/04/15 11:21:23;;;;;;;64.20;57.03;;;11.70;90.10;;;;;;4925788;29;20200;-93
2023/04/15 11:23:49;;;;;;;59.93;53.67;;;12.00;90.30;;;;;;4922331;29;20259;-94
2023/04/15 11:26:15;;;;;;;55.00;49.00;;;12.30;90.10;;;;;;4921495;29;20212;-93
2023/04/15 11:28:44;;;;;;;53.63;45.33;;;12.30;89.40;;;;;;4924670;29;20263;-94
2023/04/15 11:31:12;;;;;;;47.80;42.60;;;12.30;88.80;;;;;;4932126;29;20192;-93
2023/04/15 11:33:55;;;;;;;53.90;44.57;;;12.20;88.00;;;;;;4926249;29;20204;-92
2023/04/15 11:36:26;;;;;;;46.10;41.27;;;12.30;88.00;;;;;;4917877;29;20169;-93
2023/04/15 11:38:52;;;;;;;41.23;37.03;;;12.50;87.80;;;;;;4923694;29;20596;-93
2023/04/15 11:41:22;;;;;;;44.83;40.03;;;12.60;87.40;;;;;;4920534;29;20188;-93
2023/04/15 11:43:49;;;;;;;40.63;36.33;;;12.80;87.50;;;;;;4917560;29;20246;-93
2023/04/15 11:46:15;;;;;;;39.50;35.37;;;12.80;86.90;;;;;;4917146;29;20181;-93
2023/04/15 11:48:45;;;;;;;37.13;33.30;;;12.80;86.30;;;;;;4917807;29;20557;-93
2023/04/15 11:51:12;;;;;;;33.77;30.07;;;12.80;85.50;;;;;;4923423;29;20208;-93
2023/04/15 11:53:44;;;;;;;36.50;31.33;;;12.80;84.30;;;;;;4919864;29;20211;-93
2023/04/15 11:56:20;;;;;;;34.77;31.33;;;12.70;83.90;;;;;;4920451;29;20344;-93
2023/04/15 11:58:46;;;;;;;36.37;32.77;;;12.70;84.40;;;;;;4922458;29;20262;-93
2023/04/15 12:01:12;;;;;;;36.23;32.63;;;12.70;84.60;;;;;;4925064;29;20177;-92
2023/04/15 12:03:40;;;;;;;35.37;31.87;;;12.80;84.70;;;;;;4919438;29;20215;-93
2023/04/15 12:06:13;;;;;;;33.43;29.97;;;12.90;84.90;;;;;;4931462;29;20270;-93
2023/04/15 12:08:54;;;;;;;31.23;27.97;;;13.00;84.00;;;;;;4933382;29;20177;-93
2023/04/15 12:11:41;;;;;;;32.60;28.13;;;13.00;83.40;;;;;;4933257;29;20185;-93
2023/04/15 12:14:18;;;;;;;28.63;25.63;;;13.10;83.80;;;;;;4930946;29;20213;-94
2023/04/15 12:16:47;;;;;;;30.53;26.83;;;13.20;82.90;;;;;;4927113;29;20169;-93
2023/04/15 12:19:15;;;;;;;32.17;28.77;;;13.30;82.70;;;;;;4927642;29;20181;-92
2023/04/15 12:21:44;;;;;;;31.63;28.27;;;13.20;82.20;;;;;;4921830;29;20264;-92
2023/04/15 12:24:11;;;;;;;31.80;28.33;;;13.20;82.90;;;;;;4919652;29;20231;-92
2023/04/15 12:26:47;;;;;;;28.03;25.13;;;12.90;83.10;;;;;;4917561;29;20181;-92
2023/04/15 12:29:15;;;;;;;26.90;24.27;;;12.80;83.00;;;;;;4917415;29;20184;-92
2023/04/15 12:31:51;;;;;;;28.00;25.10;;;12.70;82.90;;;;;;4917859;29;20177;-92
2023/04/15 12:34:24;;;;;;;28.73;24.77;;;12.60;82.80;;;;;;4916313;29;20172;-92